sensor_id;sensor_type;location;lat;lon;timestamp;pressure;altitude;pressure_sealevel;temperature;humidity
80414;BME280;69758;52.580;13.068;2023-10-31T00:01:49;99303.04;;;18.04;36.81
80414;BME280;69758;52.580;13.068;2023-10-31T00:04:14;99293.52;;;18.02;36.78
80414;BME280;69758;52.580;13.068;2023-10-31T00:06:40;99294.31;;;18.47;36.80
80414;BME280;69758;52.580;13.068;2023-10-31T00:09:05;99299.86;;;18.00;36.82
80414;BME280;69758;52.580;13.068;2023-10-31T00:11:30;99310.26;;;18.00;36.81
80414;BME280;69758;52.580;13.068;2023-10-31T00:13:56;99316.51;;;18.02;36.77
80414;BME280;69758;52.580;13.068;2023-10-31T00:16:20;99313.14;;;18.29;36.85
80414;BME280;69758;52.580;13.068;2023-10-31T00:18:46;99314.11;;;18.55;36.82
80414;BME280;69758;52.580;13.068;2023-10-31T00:21:12;99317.62;;;18.35;36.77
80414;BME280;69758;52.580;13.068;2023-10-31T00:23:42;99322.59;;;18.59;36.68
80414;BME280;69758;52.580;13.068;2023-10-31T00:26:02;99323.33;;;18.57;36.68
80414;BME280;69758;52.580;13.068;2023-10-31T00:28:27;99321.41;;;18.59;36.62
80414;BME280;69758;52.580;13.068;2023-10-31T00:30:52;99325.28;;;18.12;36.63
80414;BME280;69758;52.580;13.068;2023-10-31T00:33:18;99332.18;;;17.93;36.59
80414;BME280;69758;52.580;13.068;2023-10-31T00:35:43;99336.86;;;18.48;36.46
80414;BME280;69758;52.580;13.068;2023-10-31T00:38:08;99335.79;;;18.28;36.36
80414;BME280;69758;52.580;13.068;2023-10-31T00:40:33;99330.82;;;18.29;36.39
80414;BME280;69758;52.580;13.068;2023-10-31T00:42:58;99323.14;;;18.50;36.54
80414;BME280;69758;52.580;13.068;2023-10-31T00:45:24;99317.07;;;18.44;36.65
80414;BME280;69758;52.580;13.068;2023-10-31T00:47:49;99317.09;;;18.15;36.75
80414;BME280;69758;52.580;13.068;2023-10-31T00:50:15;99313.70;;;18.61;36.79
80414;BME280;69758;52.580;13.068;2023-10-31T00:52:40;99302.84;;;18.13;36.80
80414;BME280;69758;52.580;13.068;2023-10-31T00:55:06;99298.24;;;18.13;36.85
80414;BME280;69758;52.580;13.068;2023-10-31T00:57:30;99301.37;;;18.12;36.87
80414;BME280;69758;52.580;13.068;2023-10-31T00:59:56;99298.20;;;18.34;36.91
80414;BME280;69758;52.580;13.068;2023-10-31T01:02:21;99298.04;;;18.35;36.96
80414;BME280;69758;52.580;13.068;2023-10-31T01:04:47;99296.72;;;18.13;36.89
80414;BME280;69758;52.580;13.068;2023-10-31T01:07:12;99290.17;;;18.35;36.94
80414;BME280;69758;52.580;13.068;2023-10-31T01:09:37;99281.77;;;18.10;36.99
80414;BME280;69758;52.580;13.068;2023-10-31T01:12:03;99273.55;;;18.31;37.05
80414;BME280;69758;52.580;13.068;2023-10-31T01:14:28;99264.41;;;18.09;37.03
80414;BME280;69758;52.580;13.068;2023-10-31T01:16:53;99257.77;;;18.40;36.95
80414;BME280;69758;52.580;13.068;2023-10-31T01:19:19;99252.04;;;18.14;36.98
80414;BME280;69758;52.580;13.068;2023-10-31T01:21:44;99245.80;;;18.07;37.07
80414;BME280;69758;52.580;13.068;2023-10-31T01:24:09;99241.96;;;18.61;37.00
80414;BME280;69758;52.580;13.068;2023-10-31T01:26:34;99235.13;;;18.35;37.08
80414;BME280;69758;52.580;13.068;2023-10-31T01:29:00;99236.11;;;18.57;37.11
80414;BME280;69758;52.580;13.068;2023-10-31T01:31:25;99235.68;;;18.30;37.11
80414;BME280;69758;52.580;13.068;2023-10-31T01:33:50;99234.33;;;18.54;37.15
80414;BME280;69758;52.580;13.068;2023-10-31T01:36:15;99234.41;;;18.09;37.10
80414;BME280;69758;52.580;13.068;2023-10-31T01:38:41;99230.46;;;18.34;37.05
80414;BME280;69758;52.580;13.068;2023-10-31T01:41:07;99230.09;;;18.32;37.01
80414;BME280;69758;52.580;13.068;2023-10-31T01:43:33;99236.93;;;18.54;37.00
80414;BME280;69758;52.580;13.068;2023-10-31T01:45:58;99240.16;;;18.30;36.95
80414;BME280;69758;52.580;13.068;2023-10-31T01:48:23;99241.57;;;18.31;37.00
80414;BME280;69758;52.580;13.068;2023-10-31T01:50:48;99240.62;;;18.30;37.02
80414;BME280;69758;52.580;13.068;2023-10-31T01:53:14;99241.08;;;18.07;37.00
80414;BME280;69758;52.580;13.068;2023-10-31T01:55:39;99234.60;;;18.35;36.92
80414;BME280;69758;52.580;13.068;2023-10-31T01:58:04;99229.03;;;18.12;36.89
80414;BME280;69758;52.580;13.068;2023-10-31T02:00:29;99225.00;;;18.11;36.86
80414;BME280;69758;52.580;13.068;2023-10-31T02:02:55;99218.54;;;18.11;36.94
80414;BME280;69758;52.580;13.068;2023-10-31T02:05:21;99207.99;;;18.17;36.97
80414;BME280;69758;52.580;13.068;2023-10-31T02:07:46;99198.11;;;18.41;36.99
80414;BME280;69758;52.580;13.068;2023-10-31T02:10:12;99189.59;;;18.61;37.00
80414;BME280;69758;52.580;13.068;2023-10-31T02:12:38;99179.67;;;18.04;37.20
80414;BME280;69758;52.580;13.068;2023-10-31T02:15:04;99174.09;;;18.45;37.28
80414;BME280;69758;52.580;13.068;2023-10-31T02:17:30;99180.93;;;18.02;37.22
80414;BME280;69758;52.580;13.068;2023-10-31T02:19:54;99172.80;;;18.24;37.19
80414;BME280;69758;52.580;13.068;2023-10-31T02:22:20;99169.24;;;18.47;37.26
80414;BME280;69758;52.580;13.068;2023-10-31T02:24:45;99168.72;;;18.44;37.28
80414;BME280;69758;52.580;13.068;2023-10-31T02:27:10;99167.01;;;18.18;37.24
80414;BME280;69758;52.580;13.068;2023-10-31T02:29:36;99159.44;;;18.19;37.34
80414;BME280;69758;52.580;13.068;2023-10-31T02:32:02;99158.38;;;18.18;37.36
80414;BME280;69758;52.580;13.068;2023-10-31T02:34:27;99157.32;;;18.41;37.31
80414;BME280;69758;52.580;13.068;2023-10-31T02:36:52;99154.31;;;18.16;37.36
80414;BME280;69758;52.580;13.068;2023-10-31T02:39:17;99157.08;;;18.17;37.36
80414;BME280;69758;52.580;13.068;2023-10-31T02:41:43;99154.76;;;18.41;37.34
80414;BME280;69758;52.580;13.068;2023-10-31T02:44:08;99151.23;;;18.41;37.39
80414;BME280;69758;52.580;13.068;2023-10-31T02:46:37;99151.99;;;17.97;37.31
80414;BME280;69758;52.580;13.068;2023-10-31T02:48:59;99146.90;;;18.49;37.24
80414;BME280;69758;52.580;13.068;2023-10-31T02:51:24;99139.71;;;18.51;37.25
80414;BME280;69758;52.580;13.068;2023-10-31T02:53:49;99143.42;;;18.50;37.24
80414;BME280;69758;52.580;13.068;2023-10-31T02:56:15;99143.09;;;18.48;37.23
80414;BME280;69758;52.580;13.068;2023-10-31T02:58:40;99139.30;;;18.00;37.29
80414;BME280;69758;52.580;13.068;2023-10-31T03:01:06;99143.82;;;18.25;37.23
80414;BME280;69758;52.580;13.068;2023-10-31T03:03:31;99142.04;;;18.30;37.10
80414;BME280;69758;52.580;13.068;2023-10-31T03:05:57;99135.87;;;18.36;37.06
80414;BME280;69758;52.580;13.068;2023-10-31T03:08:22;99139.53;;;18.60;37.02
80414;BME280;69758;52.580;13.068;2023-10-31T03:10:47;99143.21;;;18.30;37.05
80414;BME280;69758;52.580;13.068;2023-10-31T03:13:13;99138.78;;;18.25;37.13
80414;BME280;69758;52.580;13.068;2023-10-31T03:15:38;99136.91;;;18.51;37.18
80414;BME280;69758;52.580;13.068;2023-10-31T03:18:03;99143.19;;;18.26;37.16
80414;BME280;69758;52.580;13.068;2023-10-31T03:20:28;99142.67;;;18.25;37.16
80414;BME280;69758;52.580;13.068;2023-10-31T03:22:53;99142.48;;;18.49;37.17
80414;BME280;69758;52.580;13.068;2023-10-31T03:25:19;99144.84;;;18.49;37.14
80414;BME280;69758;52.580;13.068;2023-10-31T03:27:44;99146.75;;;18.26;37.13
80414;BME280;69758;52.580;13.068;2023-10-31T03:30:11;99144.19;;;18.24;37.19
80414;BME280;69758;52.580;13.068;2023-10-31T03:32:36;99147.35;;;18.26;37.16
80414;BME280;69758;52.580;13.068;2023-10-31T03:35:02;99144.60;;;18.52;37.16
80414;BME280;69758;52.580;13.068;2023-10-31T03:37:27;99143.05;;;18.53;37.12
80414;BME280;69758;52.580;13.068;2023-10-31T03:39:52;99143.81;;;18.32;37.18
80414;BME280;69758;52.580;13.068;2023-10-31T03:42:17;99146.73;;;18.30;37.15
80414;BME280;69758;52.580;13.068;2023-10-31T03:44:42;99151.86;;;18.45;37.23
80414;BME280;69758;52.580;13.068;2023-10-31T03:47:08;99149.74;;;18.43;37.26
80414;BME280;69758;52.580;13.068;2023-10-31T03:49:33;99148.03;;;18.37;37.33
80414;BME280;69758;52.580;13.068;2023-10-31T03:51:58;99145.48;;;18.36;37.36
80414;BME280;69758;52.580;13.068;2023-10-31T03:54:23;99142.91;;;18.39;37.35
80414;BME280;69758;52.580;13.068;2023-10-31T03:56:49;99138.70;;;18.38;37.38
80414;BME280;69758;52.580;13.068;2023-10-31T03:59:14;99136.71;;;18.35;37.43
80414;BME280;69758;52.580;13.068;2023-10-31T04:01:39;99136.22;;;18.07;37.47
80414;BME280;69758;52.580;13.068;2023-10-31T04:04:05;99137.20;;;18.31;37.58
80414;BME280;69758;52.580;13.068;2023-10-31T04:06:30;99141.13;;;17.87;37.55
80414;BME280;69758;52.580;13.068;2023-10-31T04:08:55;99144.50;;;18.33;37.58
80414;BME280;69758;52.580;13.068;2023-10-31T04:11:20;99140.65;;;18.41;37.49
80414;BME280;69758;52.580;13.068;2023-10-31T04:13:45;99141.56;;;18.19;37.47
80414;BME280;69758;52.580;13.068;2023-10-31T04:16:11;99138.97;;;18.42;37.50
80414;BME280;69758;52.580;13.068;2023-10-31T04:18:36;99140.20;;;18.42;37.53
80414;BME280;69758;52.580;13.068;2023-10-31T04:21:01;99139.06;;;18.41;37.54
80414;BME280;69758;52.580;13.068;2023-10-31T04:23:26;99138.84;;;17.98;37.50
80414;BME280;69758;52.580;13.068;2023-10-31T04:25:51;99138.89;;;17.99;37.49
80414;BME280;69758;52.580;13.068;2023-10-31T04:28:17;99136.44;;;18.20;37.54
80414;BME280;69758;52.580;13.068;2023-10-31T04:30:42;99138.27;;;17.96;37.59
80414;BME280;69758;52.580;13.068;2023-10-31T04:33:07;99136.32;;;18.19;37.64
80414;BME280;69758;52.580;13.068;2023-10-31T04:35:32;99133.34;;;17.95;37.64
80414;BME280;69758;52.580;13.068;2023-10-31T04:37:58;99127.20;;;18.40;37.75
80414;BME280;69758;52.580;13.068;2023-10-31T04:40:23;99122.51;;;18.14;37.80
80414;BME280;69758;52.580;13.068;2023-10-31T04:42:48;99121.68;;;18.42;37.82
80414;BME280;69758;52.580;13.068;2023-10-31T04:45:13;99118.67;;;18.19;37.83
80414;BME280;69758;52.580;13.068;2023-10-31T04:47:40;99114.97;;;18.28;37.75
80414;BME280;69758;52.580;13.068;2023-10-31T04:50:04;99115.78;;;18.05;37.73
80414;BME280;69758;52.580;13.068;2023-10-31T04:52:29;99115.77;;;18.06;37.77
80414;BME280;69758;52.580;13.068;2023-10-31T04:54:54;99117.52;;;18.27;37.84
80414;BME280;69758;52.580;13.068;2023-10-31T04:57:20;99116.71;;;18.24;37.93
80414;BME280;69758;52.580;13.068;2023-10-31T04:59:45;99113.50;;;18.52;37.89
80414;BME280;69758;52.580;13.068;2023-10-31T05:02:11;99108.72;;;18.10;37.83
80414;BME280;69758;52.580;13.068;2023-10-31T05:04:38;99108.74;;;18.16;37.82
80414;BME280;69758;52.580;13.068;2023-10-31T05:07:02;99114.46;;;18.42;37.82
80414;BME280;69758;52.580;13.068;2023-10-31T05:09:27;99115.02;;;18.34;38.00
80414;BME280;69758;52.580;13.068;2023-10-31T05:11:52;99117.69;;;18.30;38.13
80414;BME280;69758;52.580;13.068;2023-10-31T05:14:18;99119.35;;;18.33;38.18
80414;BME280;69758;52.580;13.068;2023-10-31T05:16:43;99121.15;;;18.35;38.16
80414;BME280;69758;52.580;13.068;2023-10-31T05:19:08;99120.25;;;18.35;38.23
80414;BME280;69758;52.580;13.068;2023-10-31T05:21:33;99120.84;;;18.13;38.22
80414;BME280;69758;52.580;13.068;2023-10-31T05:23:59;99120.84;;;18.18;38.20
80414;BME280;69758;52.580;13.068;2023-10-31T05:26:24;99116.67;;;18.27;38.10
80414;BME280;69758;52.580;13.068;2023-10-31T05:28:49;99113.79;;;18.28;38.12
80414;BME280;69758;52.580;13.068;2023-10-31T05:31:15;99111.21;;;18.28;38.16
80414;BME280;69758;52.580;13.068;2023-10-31T05:33:39;99108.39;;;18.26;38.22
80414;BME280;69758;52.580;13.068;2023-10-31T05:36:05;99112.42;;;18.51;38.24
80414;BME280;69758;52.580;13.068;2023-10-31T05:38:30;99119.51;;;18.26;38.24
80414;BME280;69758;52.580;13.068;2023-10-31T05:40:55;99116.63;;;18.29;38.29
80414;BME280;69758;52.580;13.068;2023-10-31T05:43:20;99116.24;;;18.56;38.29
80414;BME280;69758;52.580;13.068;2023-10-31T05:45:46;99114.20;;;18.38;38.32
80414;BME280;69758;52.580;13.068;2023-10-31T05:48:11;99116.07;;;18.41;38.31
80414;BME280;69758;52.580;13.068;2023-10-31T05:50:36;99116.52;;;18.84;38.42
80414;BME280;69758;52.580;13.068;2023-10-31T05:53:01;99117.74;;;18.28;38.57
80414;BME280;69758;52.580;13.068;2023-10-31T05:55:27;99117.81;;;18.25;38.66
80414;BME280;69758;52.580;13.068;2023-10-31T05:57:52;99120.26;;;18.35;38.63
80414;BME280;69758;52.580;13.068;2023-10-31T06:00:18;99126.20;;;18.44;38.52
80414;BME280;69758;52.580;13.068;2023-10-31T06:02:43;99127.98;;;18.63;38.61
80414;BME280;69758;52.580;13.068;2023-10-31T06:05:08;99131.71;;;18.35;38.73
80414;BME280;69758;52.580;13.068;2023-10-31T06:07:33;99136.90;;;18.38;38.74
80414;BME280;69758;52.580;13.068;2023-10-31T06:09:58;99139.96;;;18.34;38.86
80414;BME280;69758;52.580;13.068;2023-10-31T06:12:24;99141.77;;;18.33;39.00
80414;BME280;69758;52.580;13.068;2023-10-31T06:14:49;99143.23;;;18.29;39.12
80414;BME280;69758;52.580;13.068;2023-10-31T06:17:14;99144.96;;;18.48;39.26
80414;BME280;69758;52.580;13.068;2023-10-31T06:19:40;99149.61;;;18.21;39.35
80414;BME280;69758;52.580;13.068;2023-10-31T06:22:06;99149.63;;;18.46;39.43
80414;BME280;69758;52.580;13.068;2023-10-31T06:24:31;99150.47;;;18.22;39.49
80414;BME280;69758;52.580;13.068;2023-10-31T06:26:56;99150.12;;;18.27;39.43
80414;BME280;69758;52.580;13.068;2023-10-31T06:29:22;99149.72;;;18.20;39.64
80414;BME280;69758;52.580;13.068;2023-10-31T06:31:47;99152.55;;;18.25;39.66
80414;BME280;69758;52.580;13.068;2023-10-31T06:34:13;99152.07;;;18.48;39.64
80414;BME280;69758;52.580;13.068;2023-10-31T06:36:38;99152.25;;;18.40;40.23
80414;BME280;69758;52.580;13.068;2023-10-31T06:39:04;99152.79;;;18.46;40.19
80414;BME280;69758;52.580;13.068;2023-10-31T06:41:29;99150.68;;;17.98;40.30
80414;BME280;69758;52.580;13.068;2023-10-31T06:43:54;99150.52;;;18.62;40.03
80414;BME280;69758;52.580;13.068;2023-10-31T06:46:20;99150.64;;;18.35;40.14
80414;BME280;69758;52.580;13.068;2023-10-31T06:48:44;99148.94;;;18.55;40.37
80414;BME280;69758;52.580;13.068;2023-10-31T06:51:11;99151.66;;;18.54;40.36
80414;BME280;69758;52.580;13.068;2023-10-31T06:53:35;99150.62;;;18.29;40.42
80414;BME280;69758;52.580;13.068;2023-10-31T06:56:01;99153.07;;;18.09;40.44
80414;BME280;69758;52.580;13.068;2023-10-31T06:58:26;99160.84;;;18.23;40.30
80414;BME280;69758;52.580;13.068;2023-10-31T07:00:51;99177.63;;;18.37;40.35
80414;BME280;69758;52.580;13.068;2023-10-31T07:03:16;99186.14;;;18.06;41.28
80414;BME280;69758;52.580;13.068;2023-10-31T07:05:42;99189.70;;;17.98;41.22
80414;BME280;69758;52.580;13.068;2023-10-31T07:08:07;99195.54;;;17.90;41.39
80414;BME280;69758;52.580;13.068;2023-10-31T07:10:32;99200.59;;;17.52;41.90
80414;BME280;69758;52.580;13.068;2023-10-31T07:12:57;99203.55;;;17.46;42.03
80414;BME280;69758;52.580;13.068;2023-10-31T07:15:22;99213.17;;;17.36;41.88
80414;BME280;69758;52.580;13.068;2023-10-31T07:17:48;99215.51;;;17.57;41.81
80414;BME280;69758;52.580;13.068;2023-10-31T07:20:13;99210.08;;;17.29;42.12
80414;BME280;69758;52.580;13.068;2023-10-31T07:22:38;99227.65;;;17.46;41.97
80414;BME280;69758;52.580;13.068;2023-10-31T07:25:04;99225.98;;;16.87;42.58
80414;BME280;69758;52.580;13.068;2023-10-31T07:27:29;99230.70;;;17.05;42.33
80414;BME280;69758;52.580;13.068;2023-10-31T07:29:54;99231.81;;;17.36;41.79
80414;BME280;69758;52.580;13.068;2023-10-31T07:32:19;99241.83;;;17.45;41.46
80414;BME280;69758;52.580;13.068;2023-10-31T07:34:44;99239.59;;;17.32;41.46
80414;BME280;69758;52.580;13.068;2023-10-31T07:37:09;99235.68;;;17.50;41.09
80414;BME280;69758;52.580;13.068;2023-10-31T07:39:35;99236.83;;;17.65;40.45
80414;BME280;69758;52.580;13.068;2023-10-31T07:42:00;99247.49;;;17.44;40.89
80414;BME280;69758;52.580;13.068;2023-10-31T07:44:25;99249.84;;;16.86;41.25
80414;BME280;69758;52.580;13.068;2023-10-31T07:46:51;99252.44;;;16.94;41.11
80414;BME280;69758;52.580;13.068;2023-10-31T07:49:16;99262.34;;;17.18;40.58
80414;BME280;69758;52.580;13.068;2023-10-31T07:51:41;99265.49;;;16.81;40.65
80414;BME280;69758;52.580;13.068;2023-10-31T07:54:06;99274.09;;;16.98;40.14
80414;BME280;69758;52.580;13.068;2023-10-31T07:56:31;99279.15;;;17.35;39.96
80414;BME280;69758;52.580;13.068;2023-10-31T07:59:01;99273.35;;;17.26;39.95
80414;BME280;69758;52.580;13.068;2023-10-31T08:01:22;99282.22;;;16.92;39.53
80414;BME280;69758;52.580;13.068;2023-10-31T08:03:47;99279.88;;;16.41;40.35
80414;BME280;69758;52.580;13.068;2023-10-31T08:06:12;99287.28;;;16.51;39.86
80414;BME280;69758;52.580;13.068;2023-10-31T08:08:37;99285.49;;;16.53;39.51
80414;BME280;69758;52.580;13.068;2023-10-31T08:11:03;99289.75;;;16.57;39.37
80414;BME280;69758;52.580;13.068;2023-10-31T08:13:28;99296.68;;;16.82;39.06
80414;BME280;69758;52.580;13.068;2023-10-31T08:15:53;99298.81;;;16.14;39.57
80414;BME280;69758;52.580;13.068;2023-10-31T08:18:19;99295.02;;;16.85;39.15
80414;BME280;69758;52.580;13.068;2023-10-31T08:20:43;99302.89;;;16.81;38.90
80414;BME280;69758;52.580;13.068;2023-10-31T08:23:09;99304.39;;;16.66;38.44
80414;BME280;69758;52.580;13.068;2023-10-31T08:25:34;99306.15;;;16.98;38.73
80414;BME280;69758;52.580;13.068;2023-10-31T08:27:59;99312.81;;;16.72;38.79
80414;BME280;69758;52.580;13.068;2023-10-31T08:30:24;99314.16;;;16.12;39.72
80414;BME280;69758;52.580;13.068;2023-10-31T08:32:50;99316.87;;;16.14;39.41
80414;BME280;69758;52.580;13.068;2023-10-31T08:35:15;99323.50;;;16.07;39.36
80414;BME280;69758;52.580;13.068;2023-10-31T08:37:40;99329.42;;;16.45;38.59
80414;BME280;69758;52.580;13.068;2023-10-31T08:40:07;99326.60;;;16.89;38.31
80414;BME280;69758;52.580;13.068;2023-10-31T08:42:30;99327.80;;;16.83;37.78
80414;BME280;69758;52.580;13.068;2023-10-31T08:44:56;99334.98;;;17.13;37.51
80414;BME280;69758;52.580;13.068;2023-10-31T08:47:21;99346.04;;;16.89;37.52
80414;BME280;69758;52.580;13.068;2023-10-31T08:49:46;99344.01;;;16.50;37.81
80414;BME280;69758;52.580;13.068;2023-10-31T08:52:11;99337.75;;;16.62;37.69
80414;BME280;69758;52.580;13.068;2023-10-31T08:54:37;99341.54;;;16.72;37.86
80414;BME280;69758;52.580;13.068;2023-10-31T08:57:02;99342.75;;;16.76;37.66
80414;BME280;69758;52.580;13.068;2023-10-31T08:59:28;99344.07;;;16.49;37.96
80414;BME280;69758;52.580;13.068;2023-10-31T09:01:52;99344.65;;;17.03;37.42
80414;BME280;69758;52.580;13.068;2023-10-31T09:04:18;99345.57;;;16.95;37.21
80414;BME280;69758;52.580;13.068;2023-10-31T09:06:43;99343.77;;;16.75;37.21
80414;BME280;69758;52.580;13.068;2023-10-31T09:09:08;99346.82;;;16.57;37.15
80414;BME280;69758;52.580;13.068;2023-10-31T09:11:33;99349.36;;;16.74;37.42
80414;BME280;69758;52.580;13.068;2023-10-31T09:13:58;99347.81;;;16.97;37.13
80414;BME280;69758;52.580;13.068;2023-10-31T09:16:29;99359.63;;;17.09;36.80
80414;BME280;69758;52.580;13.068;2023-10-31T09:18:49;99366.10;;;16.93;36.48
80414;BME280;69758;52.580;13.068;2023-10-31T09:21:14;99363.30;;;17.17;36.14
80414;BME280;69758;52.580;13.068;2023-10-31T09:23:39;99367.12;;;17.21;36.09
80414;BME280;69758;52.580;13.068;2023-10-31T09:26:05;99373.54;;;17.28;36.02
80414;BME280;69758;52.580;13.068;2023-10-31T09:28:31;99378.21;;;16.09;36.27
80414;BME280;69758;52.580;13.068;2023-10-31T09:30:55;99381.27;;;16.91;36.32
80414;BME280;69758;52.580;13.068;2023-10-31T09:33:20;99379.87;;;16.93;36.36
80414;BME280;69758;52.580;13.068;2023-10-31T09:35:45;99373.14;;;16.59;36.41
80414;BME280;69758;52.580;13.068;2023-10-31T09:38:11;99366.36;;;16.39;36.85
80414;BME280;69758;52.580;13.068;2023-10-31T09:40:37;99374.89;;;16.44;36.64
80414;BME280;69758;52.580;13.068;2023-10-31T09:45:26;99374.64;;;16.59;36.09
80414;BME280;69758;52.580;13.068;2023-10-31T09:47:52;99377.12;;;16.78;35.71
80414;BME280;69758;52.580;13.068;2023-10-31T09:50:17;99390.41;;;16.57;35.76
80414;BME280;69758;52.580;13.068;2023-10-31T09:52:42;99388.53;;;16.32;35.73
80414;BME280;69758;52.580;13.068;2023-10-31T09:55:08;99393.15;;;16.47;36.09
80414;BME280;69758;52.580;13.068;2023-10-31T09:57:32;99396.95;;;16.74;35.79
80414;BME280;69758;52.580;13.068;2023-10-31T09:59:58;99399.57;;;16.50;35.76
80414;BME280;69758;52.580;13.068;2023-10-31T10:02:23;99400.16;;;16.38;35.72
80414;BME280;69758;52.580;13.068;2023-10-31T10:04:49;99405.60;;;16.29;36.08
80414;BME280;69758;52.580;13.068;2023-10-31T10:07:15;99413.17;;;16.66;35.52
80414;BME280;69758;52.580;13.068;2023-10-31T10:09:38;99415.04;;;16.36;35.64
80414;BME280;69758;52.580;13.068;2023-10-31T10:12:05;99410.78;;;16.73;35.84
80414;BME280;69758;52.580;13.068;2023-10-31T10:14:29;99419.11;;;16.36;35.69
80414;BME280;69758;52.580;13.068;2023-10-31T10:16:54;99424.83;;;16.48;35.92
80414;BME280;69758;52.580;13.068;2023-10-31T10:19:21;99429.83;;;16.68;35.68
80414;BME280;69758;52.580;13.068;2023-10-31T10:21:49;99435.49;;;16.96;35.36
80414;BME280;69758;52.580;13.068;2023-10-31T10:24:10;99436.28;;;16.93;35.21
80414;BME280;69758;52.580;13.068;2023-10-31T10:26:35;99430.93;;;16.72;35.23
80414;BME280;69758;52.580;13.068;2023-10-31T10:29:00;99428.49;;;16.66;35.32
80414;BME280;69758;52.580;13.068;2023-10-31T10:31:25;99423.25;;;16.52;35.41
80414;BME280;69758;52.580;13.068;2023-10-31T10:33:50;99424.83;;;16.92;35.36
80414;BME280;69758;52.580;13.068;2023-10-31T10:36:16;99424.78;;;17.34;34.96
80414;BME280;69758;52.580;13.068;2023-10-31T10:38:42;99427.80;;;17.44;34.67
80414;BME280;69758;52.580;13.068;2023-10-31T10:41:06;99430.90;;;17.83;34.44
80414;BME280;69758;52.580;13.068;2023-10-31T10:43:36;99430.08;;;17.39;35.02
80414;BME280;69758;52.580;13.068;2023-10-31T10:45:58;99421.39;;;17.35;34.93
80414;BME280;69758;52.580;13.068;2023-10-31T10:48:23;99427.85;;;17.23;35.09
80414;BME280;69758;52.580;13.068;2023-10-31T10:50:51;99425.13;;;17.13;35.18
80414;BME280;69758;52.580;13.068;2023-10-31T10:53:20;99428.45;;;17.51;34.93
80414;BME280;69758;52.580;13.068;2023-10-31T10:55:39;99420.36;;;17.51;34.81
80414;BME280;69758;52.580;13.068;2023-10-31T10:58:05;99419.47;;;17.69;34.81
80414;BME280;69758;52.580;13.068;2023-10-31T11:00:28;99408.45;;;17.15;34.77
80414;BME280;69758;52.580;13.068;2023-10-31T11:02:56;99405.64;;;17.03;35.33
80414;BME280;69758;52.580;13.068;2023-10-31T11:05:19;99405.15;;;17.31;35.00
80414;BME280;69758;52.580;13.068;2023-10-31T11:07:44;99400.83;;;17.84;34.50
80414;BME280;69758;52.580;13.068;2023-10-31T11:10:09;99405.38;;;17.06;34.66
80414;BME280;69758;52.580;13.068;2023-10-31T11:12:36;99407.38;;;17.35;34.40
80414;BME280;69758;52.580;13.068;2023-10-31T11:15:01;99411.39;;;17.64;34.39
80414;BME280;69758;52.580;13.068;2023-10-31T11:17:27;99406.97;;;17.04;35.01
80414;BME280;69758;52.580;13.068;2023-10-31T11:19:50;99402.36;;;16.98;34.94
80414;BME280;69758;52.580;13.068;2023-10-31T11:22:17;99407.42;;;16.84;35.44
80414;BME280;69758;52.580;13.068;2023-10-31T11:24:42;99409.04;;;16.73;35.49
80414;BME280;69758;52.580;13.068;2023-10-31T11:27:06;99418.76;;;16.98;35.08
80414;BME280;69758;52.580;13.068;2023-10-31T11:29:31;99415.64;;;16.71;34.91
80414;BME280;69758;52.580;13.068;2023-10-31T11:31:56;99417.29;;;17.04;35.29
80414;BME280;69758;52.580;13.068;2023-10-31T11:34:21;99431.12;;;16.98;35.10
80414;BME280;69758;52.580;13.068;2023-10-31T11:36:46;99436.01;;;17.04;35.27
80414;BME280;69758;52.580;13.068;2023-10-31T11:39:12;99440.10;;;17.25;35.04
80414;BME280;69758;52.580;13.068;2023-10-31T11:41:37;99445.20;;;16.94;35.02
80414;BME280;69758;52.580;13.068;2023-10-31T11:44:02;99447.87;;;17.12;35.09
80414;BME280;69758;52.580;13.068;2023-10-31T11:46:29;99455.54;;;17.41;34.71
80414;BME280;69758;52.580;13.068;2023-10-31T11:48:53;99456.33;;;17.28;34.94
80414;BME280;69758;52.580;13.068;2023-10-31T11:51:17;99462.31;;;17.04;34.96
80414;BME280;69758;52.580;13.068;2023-10-31T11:53:43;99470.00;;;17.00;34.73
80414;BME280;69758;52.580;13.068;2023-10-31T11:56:09;99476.52;;;16.81;34.79
80414;BME280;69758;52.580;13.068;2023-10-31T11:58:33;99479.83;;;16.92;35.10
80414;BME280;69758;52.580;13.068;2023-10-31T12:01:02;99479.32;;;17.18;34.87
80414;BME280;69758;52.580;13.068;2023-10-31T12:03:23;99492.76;;;16.77;34.81
80414;BME280;69758;52.580;13.068;2023-10-31T12:05:53;99500.74;;;17.38;34.19
80414;BME280;69758;52.580;13.068;2023-10-31T12:08:14;99506.05;;;17.24;33.95
80414;BME280;69758;52.580;13.068;2023-10-31T12:10:40;99512.12;;;16.78;34.26
80414;BME280;69758;52.580;13.068;2023-10-31T12:13:12;99514.27;;;17.16;34.26
80414;BME280;69758;52.580;13.068;2023-10-31T12:15:30;99511.98;;;17.32;33.86
80414;BME280;69758;52.580;13.068;2023-10-31T12:17:58;99508.89;;;17.14;34.05
80414;BME280;69758;52.580;13.068;2023-10-31T12:20:20;99514.96;;;17.02;34.08
80414;BME280;69758;52.580;13.068;2023-10-31T12:22:45;99506.67;;;17.41;33.59
80414;BME280;69758;52.580;13.068;2023-10-31T12:25:11;99506.19;;;17.43;33.31
80414;BME280;69758;52.580;13.068;2023-10-31T12:27:42;99503.69;;;16.99;33.69
80414;BME280;69758;52.580;13.068;2023-10-31T12:30:01;99504.82;;;17.23;33.61
80414;BME280;69758;52.580;13.068;2023-10-31T12:32:27;99503.86;;;17.38;33.49
80414;BME280;69758;52.580;13.068;2023-10-31T12:34:52;99507.26;;;17.33;33.71
80414;BME280;69758;52.580;13.068;2023-10-31T12:37:16;99515.36;;;17.14;33.67
80414;BME280;69758;52.580;13.068;2023-10-31T12:39:42;99520.96;;;17.46;33.58
80414;BME280;69758;52.580;13.068;2023-10-31T12:42:07;99520.30;;;17.69;33.35